Time;durP1;ratioP1;P1;durP2;ratioP2;P2;SDS_P1;SDS_P2;PMS_P1;PMS_P2;Temp;Humidity;BMP_temperature;BMP_pressure;BME280_temperature;BME280_humidity;BME280_pressure;Samples;Min_cycle;Max_cycle;Signal;HPM_P1;HPM_P2
2023/06/03 00:00:18;;;;;;;1999.90;999.90;;;16.00;99.90;;;;;;5032197;28;20633;-69
2023/06/03 00:02:44;;;;;;;1999.90;999.90;;;16.00;99.90;;;;;;5032082;28;20256;-70
2023/06/03 00:05:10;;;;;;;1999.90;999.90;;;16.00;99.90;;;;;;5032482;28;20492;-70
2023/06/03 00:07:35;;;;;;;1999.90;999.90;;;15.90;99.90;;;;;;5032238;28;20662;-69
2023/06/03 00:10:01;;;;;;;1999.90;999.90;;;15.90;99.90;;;;;;5032183;28;20171;-70
2023/06/03 00:12:26;;;;;;;1999.90;999.90;;;15.90;99.90;;;;;;5032020;28;20172;-69
2023/06/03 00:14:52;;;;;;;1999.90;999.90;;;15.80;99.90;;;;;;5032105;28;20204;-70
2023/06/03 00:17:17;;;;;;;1999.90;999.90;;;15.80;99.90;;;;;;5032175;28;20238;-70
2023/06/03 00:19:43;;;;;;;1999.90;999.90;;;15.80;99.90;;;;;;5032103;28;20256;-70
2023/06/03 00:22:09;;;;;;;1999.90;999.90;;;15.70;99.90;;;;;;5031920;28;20600;-70
2023/06/03 00:24:34;;;;;;;1999.90;999.90;;;15.70;99.90;;;;;;5032140;28;20250;-70
2023/06/03 00:27:00;;;;;;;1999.90;999.90;;;15.70;99.90;;;;;;5031973;28;20248;-70
2023/06/03 00:29:26;;;;;;;1999.90;999.90;;;15.60;99.90;;;;;;5032258;28;20170;-70
2023/06/03 00:31:52;;;;;;;1999.90;999.90;;;15.60;99.90;;;;;;5031986;28;20175;-70
2023/06/03 00:34:18;;;;;;;1999.90;999.90;;;15.50;99.90;;;;;;5032110;28;20446;-70
2023/06/03 00:36:43;;;;;;;1999.90;999.90;;;15.50;99.90;;;;;;5032216;28;20579;-70
2023/06/03 00:39:10;;;;;;;1999.90;999.90;;;15.50;99.90;;;;;;5032080;28;20407;-70
2023/06/03 00:41:36;;;;;;;1999.90;999.90;;;15.50;99.90;;;;;;5031650;28;20179;-70
2023/06/03 00:44:02;;;;;;;1999.90;999.90;;;15.40;99.90;;;;;;5031837;28;20517;-70
2023/06/03 00:46:28;;;;;;;1999.90;999.90;;;15.40;99.90;;;;;;5031839;28;20512;-69
2023/06/03 00:48:53;;;;;;;1999.90;999.90;;;15.40;99.90;;;;;;5031952;28;20417;-70
2023/06/03 00:51:21;;;;;;;1999.90;999.90;;;15.30;99.90;;;;;;5031859;28;20415;-70
2023/06/03 00:53:47;;;;;;;1999.90;999.90;;;15.30;99.90;;;;;;5032025;28;20625;-70
2023/06/03 00:56:15;;;;;;;1999.90;999.90;;;15.30;99.90;;;;;;5031906;28;20431;-69
2023/06/03 00:58:41;;;;;;;1999.90;999.90;;;15.20;99.90;;;;;;5032075;28;20482;-70
2023/06/03 01:01:06;;;;;;;1999.90;999.90;;;15.20;99.90;;;;;;5031822;28;20443;-70
2023/06/03 01:03:32;;;;;;;1999.90;999.90;;;15.10;99.90;;;;;;5032077;28;20562;-70
2023/06/03 01:06:26;;;;;;;1999.90;999.90;;;15.10;99.90;;;;;;5031783;28;20179;-69
2023/06/03 01:09:12;;;;;;;1999.90;999.90;;;15.10;99.90;;;;;;5034328;28;20205;-69
2023/06/03 01:12:07;;;;;;;1999.90;999.90;;;15.00;99.90;;;;;;5035845;28;20782;-70
2023/06/03 01:14:40;;;;;;;1999.90;999.90;;;15.10;99.90;;;;;;5012363;28;20470;-69
2023/06/03 01:17:12;;;;;;;1999.90;999.90;;;15.10;99.90;;;;;;5035732;28;20968;-69
2023/06/03 01:19:49;;;;;;;1999.90;999.90;;;15.00;99.90;;;;;;5035867;28;20776;-70
2023/06/03 01:22:16;;;;;;;1999.90;999.90;;;14.90;99.90;;;;;;5035501;28;20425;-70
2023/06/03 01:24:43;;;;;;;1999.90;999.90;;;14.90;99.90;;;;;;5035693;28;20945;-70
2023/06/03 01:27:12;;;;;;;1999.90;999.90;;;14.90;99.90;;;;;;5035377;28;20442;-70
2023/06/03 01:29:40;;;;;;;1999.90;999.90;;;14.90;99.90;;;;;;5035521;28;20488;-70
2023/06/03 01:32:12;;;;;;;1999.90;999.90;;;15.00;99.90;;;;;;5035048;28;20500;-70
2023/06/03 01:34:40;;;;;;;1999.90;999.90;;;14.90;99.90;;;;;;5035360;28;20483;-70
2023/06/03 01:37:06;;;;;;;1999.90;999.90;;;14.90;99.90;;;;;;5035458;28;20950;-69
2023/06/03 01:39:32;;;;;;;1999.90;999.90;;;14.90;99.90;;;;;;5035221;28;20414;-69
2023/06/03 01:41:58;;;;;;;1999.90;999.90;;;14.90;99.90;;;;;;5035022;28;20408;-70
2023/06/03 01:44:23;;;;;;;1999.90;999.90;;;14.80;99.90;;;;;;5035284;28;20913;-70
2023/06/03 01:46:49;;;;;;;1999.90;999.90;;;14.80;99.90;;;;;;5035151;28;20206;-69
2023/06/03 01:49:17;;;;;;;1999.90;999.90;;;14.70;99.90;;;;;;5035117;28;20207;-70
2023/06/03 01:51:43;;;;;;;1999.90;999.90;;;14.70;99.90;;;;;;5034911;28;20192;-70
2023/06/03 01:54:09;;;;;;;1999.90;999.90;;;14.70;99.90;;;;;;5035018;28;20459;-70
2023/06/03 01:56:34;;;;;;;1999.90;999.90;;;14.60;99.90;;;;;;5034976;28;20507;-70
2023/06/03 01:59:00;;;;;;;1999.90;999.90;;;14.60;99.90;;;;;;5035053;28;20258;-70
2023/06/03 02:01:26;;;;;;;1999.90;999.90;;;14.60;99.90;;;;;;5034806;28;20497;-70
2023/06/03 02:03:51;;;;;;;1999.90;999.90;;;14.60;99.90;;;;;;5034788;28;20410;-70
2023/06/03 02:06:17;;;;;;;1999.90;999.90;;;14.60;99.90;;;;;;5034821;28;20164;-70
2023/06/03 02:08:42;;;;;;;1999.90;999.90;;;14.50;99.90;;;;;;5034890;28;20276;-70
2023/06/03 02:11:08;;;;;;;1999.90;999.90;;;14.60;99.90;;;;;;5034618;28;20171;-70
2023/06/03 02:13:34;;;;;;;1999.90;999.90;;;14.50;99.90;;;;;;5034218;28;20190;-70
2023/06/03 02:15:59;;;;;;;1999.90;999.90;;;14.50;99.90;;;;;;5034188;28;20165;-70
2023/06/03 02:18:26;;;;;;;1999.90;999.90;;;14.50;99.90;;;;;;5033662;28;20597;-70
2023/06/03 02:20:52;;;;;;;1999.90;999.90;;;14.50;99.90;;;;;;5034092;28;20179;-70
2023/06/03 02:23:17;;;;;;;1999.90;999.90;;;14.50;99.90;;;;;;5033967;28;20426;-70
2023/06/03 02:25:43;;;;;;;1999.90;999.90;;;14.40;99.90;;;;;;5034071;28;20595;-70
2023/06/03 02:28:09;;;;;;;1999.90;999.90;;;14.40;99.90;;;;;;5034038;28;20281;-70
2023/06/03 02:30:34;;;;;;;1999.90;999.90;;;14.40;99.90;;;;;;5033873;28;20311;-70
2023/06/03 02:33:00;;;;;;;1999.90;999.90;;;14.40;99.90;;;;;;5033575;28;20498;-70
2023/06/03 02:35:25;;;;;;;1999.90;999.90;;;14.30;99.90;;;;;;5033856;28;20545;-70
2023/06/03 02:37:51;;;;;;;1999.90;999.90;;;14.30;99.90;;;;;;5033756;28;20187;-70
2023/06/03 02:40:17;;;;;;;1999.90;999.90;;;14.30;99.90;;;;;;5033725;28;20174;-70
2023/06/03 02:42:42;;;;;;;1999.90;999.90;;;14.30;99.90;;;;;;5033416;28;20177;-70
2023/06/03 02:45:08;;;;;;;1999.90;999.90;;;14.20;99.90;;;;;;5033664;28;20171;-70
2023/06/03 02:47:34;;;;;;;1999.90;999.90;;;14.20;99.90;;;;;;5033605;28;20270;-70
2023/06/03 02:50:00;;;;;;;1999.90;999.90;;;14.10;99.90;;;;;;5033479;28;20936;-70
2023/06/03 02:52:25;;;;;;;1999.90;999.90;;;14.10;99.90;;;;;;5033289;28;20245;-70
2023/06/03 02:54:51;;;;;;;1999.90;999.90;;;14.10;99.90;;;;;;5033458;28;20701;-70
2023/06/03 02:57:17;;;;;;;1999.90;999.90;;;14.00;99.90;;;;;;5033366;28;20195;-70
2023/06/03 02:59:42;;;;;;;1999.90;999.90;;;14.10;99.90;;;;;;5033439;28;20177;-70
2023/06/03 03:02:09;;;;;;;1999.90;999.90;;;14.00;99.90;;;;;;5033044;28;20434;-69
2023/06/03 03:04:36;;;;;;;1999.90;999.90;;;14.00;99.90;;;;;;5033286;28;20175;-69
2023/06/03 03:07:08;;;;;;;1999.90;999.90;;;14.00;99.90;;;;;;5033276;28;20522;-69
2023/06/03 03:09:34;;;;;;;1999.90;999.90;;;14.00;99.90;;;;;;5033164;28;20441;-69
2023/06/03 03:12:00;;;;;;;1999.90;999.90;;;13.90;99.90;;;;;;5032807;28;20402;-70
2023/06/03 03:14:25;;;;;;;1999.90;999.90;;;14.00;99.90;;;;;;5033024;28;20514;-70
2023/06/03 03:16:52;;;;;;;1999.90;999.90;;;13.90;99.90;;;;;;5033007;28;20216;-70
2023/06/03 03:19:18;;;;;;;1999.90;999.90;;;13.90;99.90;;;;;;5033083;28;20181;-70
2023/06/03 03:21:43;;;;;;;1999.90;999.90;;;13.80;99.90;;;;;;5032737;28;20407;-70
2023/06/03 03:24:10;;;;;;;1999.90;999.90;;;13.80;99.90;;;;;;5032910;28;20468;-69
2023/06/03 03:26:36;;;;;;;1999.90;999.90;;;13.70;99.90;;;;;;5033126;28;20216;-69
2023/06/03 03:29:02;;;;;;;1999.90;999.90;;;13.70;99.90;;;;;;5032802;28;20497;-69
2023/06/03 03:31:29;;;;;;;1999.90;999.90;;;13.70;99.90;;;;;;5031934;28;20403;-69
2023/06/03 03:33:55;;;;;;;1999.90;999.90;;;13.70;99.90;;;;;;5032786;28;20458;-69
2023/06/03 03:36:22;;;;;;;1999.90;999.90;;;13.70;99.90;;;;;;5032628;28;20947;-69
2023/06/03 03:39:03;;;;;;;1999.90;999.90;;;13.70;99.90;;;;;;5032985;28;20244;-69
2023/06/03 03:41:29;;;;;;;1999.90;999.90;;;13.60;99.90;;;;;;5032606;28;20397;-69
2023/06/03 03:43:55;;;;;;;1999.90;999.90;;;13.70;99.90;;;;;;5032619;28;20407;-69
2023/06/03 03:46:21;;;;;;;1999.90;999.90;;;13.70;99.90;;;;;;5032437;28;20979;-69
2023/06/03 03:48:46;;;;;;;1999.90;999.90;;;13.70;99.90;;;;;;5032460;28;20416;-69
2023/06/03 03:51:13;;;;;;;1999.90;999.90;;;13.70;99.90;;;;;;5032175;28;20179;-69
2023/06/03 03:53:44;;;;;;;1999.90;999.90;;;13.70;99.90;;;;;;5032359;28;20202;-69
2023/06/03 03:56:12;;;;;;;1999.90;999.90;;;13.70;99.90;;;;;;5032567;28;20402;-69
2023/06/03 03:58:41;;;;;;;1999.90;999.90;;;13.70;99.90;;;;;;5032548;28;20457;-69
2023/06/03 04:01:12;;;;;;;1999.90;999.90;;;13.70;99.90;;;;;;5032461;28;20485;-69
2023/06/03 04:03:42;;;;;;;1999.90;999.90;;;13.70;99.90;;;;;;5032214;28;20403;-69
2023/06/03 04:06:10;;;;;;;1999.90;999.90;;;13.70;99.90;;;;;;5032238;28;20836;-69
2023/06/03 04:08:38;;;;;;;1999.90;999.90;;;13.80;99.90;;;;;;5032317;28;20443;-69
2023/06/03 04:11:04;;;;;;;1999.90;999.90;;;13.80;99.90;;;;;;5032300;28;20439;-69
2023/06/03 04:13:35;;;;;;;1999.90;999.90;;;13.80;99.90;;;;;;5032106;28;20439;-69
2023/06/03 04:16:12;;;;;;;1999.90;999.90;;;13.80;99.90;;;;;;5032104;28;20438;-69
2023/06/03 04:18:42;;;;;;;1999.90;999.90;;;13.90;99.90;;;;;;5032224;28;20405;-69
2023/06/03 04:21:16;;;;;;;1999.90;999.90;;;13.90;99.90;;;;;;5031745;28;20537;-69
2023/06/03 04:23:42;;;;;;;1999.90;999.90;;;13.90;99.90;;;;;;5032324;28;20435;-70
2023/06/03 04:26:09;;;;;;;1999.90;999.90;;;13.90;99.90;;;;;;5031848;28;20410;-69
2023/06/03 04:28:37;;;;;;;1999.90;999.90;;;14.00;99.90;;;;;;5032138;28;20255;-69
2023/06/03 04:31:02;;;;;;;1999.90;999.90;;;14.00;99.90;;;;;;5031661;28;20467;-69
2023/06/03 04:33:28;;;;;;;1999.90;999.90;;;14.00;99.90;;;;;;5031902;28;20812;-69
2023/06/03 04:35:54;;;;;;;1999.90;999.90;;;14.10;99.90;;;;;;5032133;28;20296;-69
2023/06/03 04:38:19;;;;;;;1999.90;999.90;;;14.20;99.90;;;;;;5032065;28;20187;-69
2023/06/03 04:40:46;;;;;;;1999.90;999.90;;;14.20;99.90;;;;;;5032133;28;20172;-69
2023/06/03 04:43:14;;;;;;;1999.90;999.90;;;14.30;99.90;;;;;;5034675;28;20270;-69
2023/06/03 04:45:40;;;;;;;1999.90;999.90;;;14.30;99.90;;;;;;5036037;28;20410;-69
2023/06/03 04:48:05;;;;;;;1999.90;999.90;;;14.30;99.90;;;;;;5035943;28;20438;-69
2023/06/03 04:50:35;;;;;;;1999.90;999.90;;;14.40;99.90;;;;;;5035944;28;20805;-69
2023/06/03 04:53:02;;;;;;;1999.90;999.90;;;14.40;99.90;;;;;;5035754;28;20489;-69
2023/06/03 04:55:27;;;;;;;1999.90;999.90;;;14.50;99.90;;;;;;5035877;28;20932;-69
2023/06/03 04:57:53;;;;;;;1999.90;999.90;;;14.60;99.90;;;;;;5035697;28;20427;-69
2023/06/03 05:00:19;;;;;;;1999.90;999.90;;;14.70;99.90;;;;;;5035624;28;20168;-69
2023/06/03 05:02:55;;;;;;;1999.90;999.90;;;14.70;99.90;;;;;;5035351;28;20925;-69
2023/06/03 05:05:24;;;;;;;1999.90;999.90;;;14.80;99.90;;;;;;5035957;28;20405;-69
2023/06/03 05:07:51;;;;;;;1999.90;999.90;;;14.80;99.90;;;;;;5035676;28;21004;-69
2023/06/03 05:10:17;;;;;;;1999.90;999.90;;;14.90;99.90;;;;;;5035479;28;20891;-69
2023/06/03 05:12:42;;;;;;;1999.90;999.90;;;14.90;99.90;;;;;;5035209;28;20409;-69
2023/06/03 05:15:08;;;;;;;1999.90;999.90;;;15.00;99.90;;;;;;5035396;28;20414;-69
2023/06/03 05:17:34;;;;;;;1999.90;999.90;;;15.10;99.90;;;;;;5035375;28;20193;-69
2023/06/03 05:20:00;;;;;;;1999.90;999.90;;;15.10;99.90;;;;;;5035367;28;20422;-69
2023/06/03 05:22:25;;;;;;;1999.90;999.90;;;15.10;99.90;;;;;;5035109;28;20178;-69
2023/06/03 05:24:51;;;;;;;1999.90;999.90;;;15.10;99.90;;;;;;5035412;28;20256;-69
2023/06/03 05:27:16;;;;;;;1999.90;999.90;;;15.20;99.90;;;;;;5035016;28;20213;-69
2023/06/03 05:29:46;;;;;;;1999.90;999.90;;;15.20;99.90;;;;;;5035245;28;20180;-69
2023/06/03 05:32:11;;;;;;;1999.90;999.90;;;15.30;99.90;;;;;;5035117;28;20576;-69
2023/06/03 05:34:37;;;;;;;1999.90;999.90;;;15.30;99.90;;;;;;5035057;28;20550;-69
2023/06/03 05:37:03;;;;;;;1999.90;999.90;;;15.40;99.90;;;;;;5035144;28;20196;-69
2023/06/03 05:39:28;;;;;;;1999.90;999.90;;;15.40;99.90;;;;;;5035107;28;20542;-69
2023/06/03 05:41:54;;;;;;;1999.90;999.90;;;15.50;99.90;;;;;;5034770;28;20433;-70
2023/06/03 05:44:19;;;;;;;1999.90;999.90;;;15.50;99.90;;;;;;5034928;28;20174;-70
2023/06/03 05:46:45;;;;;;;1999.90;999.90;;;15.60;99.90;;;;;;5035462;28;20200;-69
2023/06/03 05:49:10;;;;;;;1999.90;999.90;;;15.70;99.90;;;;;;5034775;28;20175;-70
2023/06/03 05:51:36;;;;;;;1999.90;999.90;;;15.70;99.90;;;;;;5034684;28;20541;-70
2023/06/03 05:54:02;;;;;;;1999.90;999.90;;;15.80;99.90;;;;;;5034077;28;20251;-70
2023/06/03 05:56:27;;;;;;;1999.90;999.90;;;15.90;99.90;;;;;;5034779;28;20832;-69
2023/06/03 05:58:53;;;;;;;1999.90;999.90;;;15.90;99.90;;;;;;5034486;28;20177;-69
2023/06/03 06:01:18;;;;;;;1999.90;999.90;;;15.90;99.90;;;;;;5034428;28;20681;-70
2023/06/03 06:03:44;;;;;;;1999.90;999.90;;;16.00;99.90;;;;;;5034870;28;20266;-69
2023/06/03 06:06:10;;;;;;;1999.90;999.90;;;15.90;99.90;;;;;;5034402;28;20226;-69
2023/06/03 06:08:35;;;;;;;1999.90;999.90;;;16.00;99.90;;;;;;5034619;28;20178;-69
2023/06/03 06:11:01;;;;;;;1999.90;999.90;;;16.10;99.90;;;;;;5034211;28;20195;-69
2023/06/03 06:13:27;;;;;;;1999.90;999.90;;;16.10;99.90;;;;;;5034249;28;20263;-69
2023/06/03 06:16:03;;;;;;;1999.90;999.90;;;16.20;99.90;;;;;;5034228;28;20709;-69
2023/06/03 06:18:31;;;;;;;1999.90;999.90;;;16.20;99.90;;;;;;5034479;28;20541;-69
2023/06/03 06:20:58;;;;;;;1999.90;999.90;;;16.20;99.90;;;;;;5034054;28;20445;-69
2023/06/03 06:23:25;;;;;;;1999.90;999.90;;;16.30;99.90;;;;;;5034411;28;20406;-69
2023/06/03 06:25:53;;;;;;;1999.90;999.90;;;16.40;99.90;;;;;;5034204;28;20407;-70
2023/06/03 06:28:24;;;;;;;1999.90;999.90;;;16.40;99.90;;;;;;5034341;28;20446;-69
2023/06/03 06:30:54;;;;;;;1999.90;999.90;;;16.40;99.90;;;;;;5034304;28;20823;-69
2023/06/03 06:33:20;;;;;;;1999.90;999.90;;;16.50;99.90;;;;;;5033900;28;20447;-69
2023/06/03 06:35:45;;;;;;;1999.90;999.90;;;16.60;99.90;;;;;;5034166;28;20829;-70
2023/06/03 06:38:13;;;;;;;1999.90;999.90;;;16.70;99.90;;;;;;5033753;28;20194;-70
2023/06/03 06:40:40;;;;;;;1999.90;999.90;;;16.70;98.80;;;;;;5033784;28;20193;-70
2023/06/03 06:43:08;;;;;;;1999.90;999.90;;;16.70;97.20;;;;;;5033459;28;20413;-70
2023/06/03 06:45:34;;;;;;;1999.90;999.90;;;16.80;96.60;;;;;;5033648;28;20421;-69
2023/06/03 06:48:08;;;;;;;1999.90;999.90;;;16.90;97.40;;;;;;5033655;28;20432;-69
2023/06/03 06:50:55;;;;;;;1999.90;999.90;;;16.90;97.20;;;;;;5033675;28;20403;-69
2023/06/03 06:53:22;;;;;;;1999.90;999.90;;;17.00;96.30;;;;;;5033629;28;20799;-69
2023/06/03 06:55:49;;;;;;;1999.90;999.90;;;17.00;94.90;;;;;;5033758;28;20415;-69
2023/06/03 06:58:16;;;;;;;1999.90;999.90;;;17.00;94.00;;;;;;5033696;28;20467;-69
2023/06/03 07:00:42;;;;;;;1999.90;999.90;;;17.10;94.70;;;;;;5033197;28;20419;-69
2023/06/03 07:03:09;;;;;;;1999.90;999.90;;;17.20;95.40;;;;;;5033288;28;20511;-69
2023/06/03 07:05:34;;;;;;;1999.90;999.90;;;17.30;94.20;;;;;;5032256;28;20925;-69
2023/06/03 07:08:00;;;;;;;1999.90;999.90;;;17.40;93.50;;;;;;5033172;28;20523;-69
2023/06/03 07:10:26;;;;;;;1999.90;999.90;;;17.50;93.00;;;;;;5032416;28;20215;-69
2023/06/03 07:12:51;;;;;;;1999.90;999.90;;;17.50;91.80;;;;;;5033026;28;20184;-70
2023/06/03 07:15:18;;;;;;;1999.90;999.90;;;17.60;91.20;;;;;;5033402;28;20726;-69
2023/06/03 07:17:54;;;;;;;1999.90;999.90;;;17.60;87.00;;;;;;5033048;28;20193;-69
2023/06/03 07:20:41;;;;;;;1999.90;999.90;;;17.60;83.60;;;;;;5032899;28;20400;-69
2023/06/03 07:23:12;;;;;;;1999.90;999.90;;;17.80;88.00;;;;;;5031181;28;20402;-69
2023/06/03 07:25:45;;;;;;;1999.90;999.90;;;17.80;85.80;;;;;;5032998;28;20392;-69
2023/06/03 07:28:33;;;;;;;1999.90;999.90;;;17.90;85.40;;;;;;5032729;28;20453;-69
2023/06/03 07:31:00;;;;;;;1999.90;999.90;;;18.00;81.90;;;;;;5032644;28;20450;-69
2023/06/03 07:33:28;;;;;;;1999.90;999.90;;;18.00;77.10;;;;;;5032789;28;20453;-69
2023/06/03 07:35:59;;;;;;;1999.90;999.90;;;18.00;78.80;;;;;;5032792;28;20460;-69
2023/06/03 07:38:37;;;;;;;1999.90;999.90;;;18.00;71.20;;;;;;5032582;28;20419;-69
2023/06/03 07:41:03;;;;;;;1999.90;999.90;;;18.10;72.60;;;;;;5032795;28;20418;-69
2023/06/03 07:43:29;;;;;;;1999.90;999.90;;;18.30;74.80;;;;;;5032542;28;20411;-69
2023/06/03 07:45:54;;;;;;;1999.90;999.90;;;18.30;75.00;;;;;;5032836;28;20484;-70
2023/06/03 07:48:20;;;;;;;1999.90;999.90;;;18.30;68.80;;;;;;5032469;28;20616;-70
2023/06/03 07:50:47;;;;;;;1999.90;999.90;;;18.30;67.60;;;;;;5032710;28;20224;-70
2023/06/03 07:53:21;;;;;;;1999.90;999.90;;;18.40;65.70;;;;;;5032453;28;20207;-70
2023/06/03 07:55:47;;;;;;;1999.90;999.90;;;18.30;59.20;;;;;;5032432;28;20479;-70
2023/06/03 07:58:15;;;;;;;1999.90;999.90;;;18.40;58.90;;;;;;5032298;28;20429;-69
2023/06/03 08:00:48;;;;;;;1999.90;999.90;;;18.50;56.50;;;;;;5032312;28;20408;-69
2023/06/03 08:03:20;;;;;;;1999.90;999.90;;;18.40;54.80;;;;;;5032181;28;20423;-70
2023/06/03 08:05:50;;;;;;;1999.90;999.90;;;18.50;54.70;;;;;;5032373;28;20418;-70
2023/06/03 08:08:18;;;;;;;1999.90;999.90;;;18.50;51.60;;;;;;5032356;28;20457;-70
2023/06/03 08:10:48;;;;;;;1999.90;999.90;;;18.50;51.70;;;;;;5032081;28;20441;-69
2023/06/03 08:13:16;;;;;;;1999.90;999.90;;;18.60;55.00;;;;;;5031846;28;20457;-69
2023/06/03 08:15:42;;;;;;;1999.90;999.90;;;18.60;51.20;;;;;;5032169;28;20460;-70
2023/06/03 08:18:08;;;;;;;1999.90;999.90;;;18.70;52.00;;;;;;5031660;28;20435;-69
2023/06/03 08:20:36;;;;;;;1999.90;999.90;;;18.80;54.30;;;;;;5031941;28;20549;-70
2023/06/03 08:23:02;;;;;;;1999.90;999.90;;;19.00;54.70;;;;;;5031840;28;20498;-69
2023/06/03 08:25:28;;;;;;;1999.90;999.90;;;19.10;50.10;;;;;;5029358;28;20407;-70
2023/06/03 08:27:54;;;;;;;1999.90;999.90;;;19.20;50.90;;;;;;5031427;28;20535;-70
2023/06/03 08:30:20;;;;;;;1999.90;999.90;;;19.30;50.20;;;;;;5032020;28;20176;-70
2023/06/03 08:32:47;;;;;;;1999.90;999.90;;;19.40;50.60;;;;;;5030878;28;20304;-70
2023/06/03 08:35:15;;;;;;;1999.90;999.90;;;19.60;50.50;;;;;;5031780;28;20479;-70
2023/06/03 08:37:42;;;;;;;1999.90;999.90;;;19.70;49.00;;;;;;5031731;28;20801;-70
2023/06/03 08:40:11;;;;;;;1999.90;999.90;;;19.80;48.90;;;;;;5031574;28;21226;-70
2023/06/03 08:42:44;;;;;;;1999.90;999.90;;;19.90;47.80;;;;;;5031441;28;20407;-70
2023/06/03 08:45:11;;;;;;;1999.90;999.90;;;20.00;47.10;;;;;;5031890;28;20404;-70
2023/06/03 08:47:49;;;;;;;1999.90;999.90;;;20.10;47.00;;;;;;5031115;28;20442;-70
2023/06/03 08:50:17;;;;;;;1999.90;999.90;;;20.20;46.10;;;;;;5031579;28;20890;-70
2023/06/03 08:52:45;;;;;;;1999.90;999.90;;;20.20;45.90;;;;;;5030731;28;20439;-70
2023/06/03 08:55:15;;;;;;;1999.90;999.90;;;20.30;45.40;;;;;;5030787;28;20900;-70
2023/06/03 08:58:05;;;;;;;1999.90;999.90;;;20.40;42.60;;;;;;5031224;28;20919;-70
2023/06/03 09:00:32;;;;;;;1999.90;999.90;;;20.40;41.10;;;;;;5031548;28;20405;-70
2023/06/03 09:02:58;;;;;;;1999.90;999.90;;;20.50;42.80;;;;;;5030465;28;20421;-70
2023/06/03 09:05:24;;;;;;;1999.90;999.90;;;20.60;42.40;;;;;;5031292;28;20446;-70
2023/06/03 09:07:53;;;;;;;1999.90;999.90;;;20.70;41.70;;;;;;5031044;28;20844;-69
2023/06/03 09:10:25;;;;;;;1999.90;999.90;;;20.90;39.90;;;;;;5030718;28;20196;-70
2023/06/03 09:12:54;;;;;;;1999.90;999.90;;;20.90;36.60;;;;;;5030762;28;20410;-70
2023/06/03 09:15:21;;;;;;;1999.90;999.90;;;21.00;36.00;;;;;;5031235;28;20424;-70
2023/06/03 09:17:47;;;;;;;1999.90;999.90;;;21.10;36.00;;;;;;5030899;28;20496;-70
2023/06/03 09:20:13;;;;;;;1999.90;999.90;;;21.30;38.10;;;;;;5031142;28;20812;-69
2023/06/03 09:22:42;;;;;;;1999.90;999.90;;;21.40;38.40;;;;;;5031308;28;20550;-70
2023/06/03 09:25:08;;;;;;;1999.90;999.90;;;21.50;35.70;;;;;;5030812;28;20389;-70
2023/06/03 09:27:34;;;;;;;1999.90;999.90;;;21.50;34.90;;;;;;5030789;28;20461;-70
2023/06/03 09:30:02;;;;;;;1999.90;999.90;;;21.60;36.90;;;;;;5043370;28;20440;-71
2023/06/03 09:32:29;;;;;;;1999.90;999.90;;;21.70;36.30;;;;;;5049041;28;20493;-69
2023/06/03 09:34:56;;;;;;;1999.90;999.90;;;21.70;34.50;;;;;;5050413;28;20512;-68
2023/06/03 09:37:22;;;;;;;1999.90;999.90;;;21.80;33.30;;;;;;5049720;28;20448;-69
2023/06/03 09:39:50;;;;;;;1999.90;999.90;;;21.90;33.50;;;;;;5049192;28;20412;-70
2023/06/03 09:42:16;;;;;;;1999.90;999.90;;;22.00;32.00;;;;;;5050114;28;20175;-70
2023/06/03 09:44:49;;;;;;;1999.90;999.90;;;22.20;33.50;;;;;;5049787;28;20410;-69
2023/06/03 09:47:16;;;;;;;1999.90;999.90;;;22.20;31.40;;;;;;5049065;28;20207;-70
2023/06/03 09:50:07;;;;;;;1999.90;999.90;;;22.40;31.50;;;;;;5051008;28;20428;-70
2023/06/03 09:52:35;;;;;;;1999.90;999.90;;;22.50;31.40;;;;;;5055663;28;20427;-72
2023/06/03 09:55:08;;;;;;;1999.90;999.90;;;22.70;31.00;;;;;;5056670;28;20464;-72
2023/06/03 09:57:35;;;;;;;1999.90;999.90;;;22.70;29.50;;;;;;5055902;28;20792;-72
2023/06/03 10:00:11;;;;;;;1999.90;999.90;;;22.70;29.90;;;;;;5057714;28;20424;-72
2023/06/03 10:02:43;;;;;;;1999.90;999.90;;;22.80;28.00;;;;;;5043461;28;20485;-72
2023/06/03 10:05:27;;;;;;;1999.90;999.90;;;22.80;26.80;;;;;;5035166;28;20411;-71
2023/06/03 10:07:53;;;;;;;1999.90;999.90;;;22.90;28.70;;;;;;5034474;28;20435;-71
2023/06/03 10:10:19;;;;;;;1999.90;999.90;;;22.80;30.40;;;;;;5029762;28;20425;-70
2023/06/03 10:12:46;;;;;;;1999.90;999.90;;;22.90;30.80;;;;;;5030729;28;20210;-70
2023/06/03 10:15:13;;;;;;;1999.90;999.90;;;23.10;28.40;;;;;;5030945;28;20455;-70
2023/06/03 10:17:45;;;;;;;1999.90;999.90;;;23.30;24.90;;;;;;5029943;28;20430;-70
2023/06/03 10:20:29;;;;;;;1999.90;999.90;;;23.30;25.80;;;;;;5030447;28;20417;-70
2023/06/03 10:22:55;;;;;;;1999.90;999.90;;;23.50;24.90;;;;;;5030125;28;20386;-70
2023/06/03 10:25:20;;;;;;;1999.90;999.90;;;23.70;25.30;;;;;;5029871;28;21021;-71
2023/06/03 10:27:47;;;;;;;1999.90;999.90;;;23.80;23.10;;;;;;5030197;28;20512;-70
2023/06/03 10:30:13;;;;;;;1999.90;999.90;;;23.90;21.90;;;;;;5029992;28;20180;-71
2023/06/03 10:32:45;;;;;;;1999.90;999.90;;;23.90;21.50;;;;;;5030069;28;20386;-70
2023/06/03 10:35:12;;;;;;;1999.90;999.90;;;24.00;19.80;;;;;;5030996;28;20472;-70
2023/06/03 10:37:40;;;;;;;1999.90;999.90;;;24.10;18.70;;;;;;5030171;28;20406;-70
2023/06/03 10:40:06;;;;;;;1999.90;999.90;;;24.10;18.80;;;;;;5029754;28;20390;-71
2023/06/03 10:42:34;;;;;;;1999.90;999.90;;;24.40;20.80;;;;;;5030707;28;20537;-71
2023/06/03 10:45:00;;;;;;;1999.90;999.90;;;24.50;20.40;;;;;;5030366;28;20382;-71
2023/06/03 10:47:30;;;;;;;1999.90;999.90;;;24.70;18.90;;;;;;5029589;28;20442;-71
2023/06/03 10:50:04;;;;;;;1999.90;999.90;;;24.80;16.00;;;;;;5030696;28;20397;-71
2023/06/03 10:52:39;;;;;;;1999.90;999.90;;;24.80;15.30;;;;;;5030816;28;20395;-70
2023/06/03 10:55:25;;;;;;;1999.90;999.90;;;24.90;16.90;;;;;;5030194;28;20829;-71
2023/06/03 10:57:59;;;;;;;1999.90;999.90;;;25.00;15.50;;;;;;5029725;28;20459;-70
2023/06/03 11:01:16;;;;;;;1999.90;999.90;;;25.10;15.30;;;;;;5030716;28;20381;-70
2023/06/03 11:04:02;;;;;;;1999.90;999.90;;;25.20;15.60;;;;;;4985630;28;20969;-70
2023/06/03 11:06:28;;;;;;;1999.90;999.90;;;25.40;13.40;;;;;;5030306;28;20431;-71
2023/06/03 11:09:05;;;;;;;1999.90;999.90;;;25.40;13.90;;;;;;5029688;28;20383;-71
2023/06/03 11:11:40;;;;;;;1999.90;999.90;;;25.60;13.50;;;;;;5030164;28;20396;-71
2023/06/03 11:14:09;;;;;;;1999.90;999.90;;;25.70;10.10;;;;;;5029148;28;20429;-71
2023/06/03 11:17:00;;;;;;;1999.90;999.90;;;25.30;7.40;;;;;;5030226;28;20434;-71
2023/06/03 11:19:31;;;;;;;1999.90;999.90;;;25.50;8.90;;;;;;5030430;28;20386;-71
2023/06/03 11:22:01;;;;;;;1999.90;999.90;;;25.70;10.00;;;;;;5030546;28;20763;-71
2023/06/03 11:24:38;;;;;;;1999.90;999.90;;;25.80;8.60;;;;;;5030735;28;20427;-71
2023/06/03 11:27:13;;;;;;;1999.90;999.90;;;26.00;9.60;;;;;;5030291;28;20825;-71
2023/06/03 11:29:48;;;;;;;1999.90;999.90;;;26.10;8.30;;;;;;5030316;28;20497;-71
2023/06/03 11:32:26;;;;;;;1999.90;999.90;;;26.30;9.30;;;;;;5029506;28;20385;-71
2023/06/03 11:35:03;;;;;;;1999.90;999.90;;;26.50;8.70;;;;;;5030672;28;20498;-71
2023/06/03 11:37:40;;;;;;;1999.90;999.90;;;26.60;7.80;;;;;;5030004;28;20434;-71
2023/06/03 11:40:17;;;;;;;1999.90;999.90;;;26.60;7.10;;;;;;5030374;28;20399;-71
2023/06/03 11:42:53;;;;;;;1999.90;999.90;;;26.70;6.50;;;;;;5030034;28;20413;-71
2023/06/03 11:45:19;;;;;;;1999.90;999.90;;;26.80;5.60;;;;;;5029243;28;20509;-71
2023/06/03 11:47:47;;;;;;;1999.90;999.90;;;27.00;4.40;;;;;;5029768;28;20514;-71
2023/06/03 11:50:13;;;;;;;1999.90;999.90;;;27.00;4.90;;;;;;5030222;28;20185;-71
2023/06/03 11:52:38;;;;;;;1999.90;999.90;;;27.20;6.60;;;;;;5029287;28;20393;-71
2023/06/03 11:55:04;;;;;;;1999.90;999.90;;;27.30;6.30;;;;;;5029507;28;20200;-71
2023/06/03 11:57:30;;;;;;;1999.90;999.90;;;27.40;2.60;;;;;;5030666;28;20252;-71
2023/06/03 11:59:57;;;;;;;1999.90;999.90;;;27.60;3.10;;;;;;5029633;28;20829;-71
2023/06/03 12:02:23;;;;;;;1999.90;999.90;;;27.80;3.40;;;;;;5030189;28;20168;-71
2023/06/03 12:04:48;;;;;;;1999.90;999.90;;;28.10;2.30;;;;;;5031281;28;20777;-71